This is the latest recevied weather packets stored in our database for station/object KD4MBW. If no packets are shown the sender has not sent any weather packets the latest 10 day(s).
| Time | Temp. | Humidity | Pressure | Rain* | Wind** | Luminosity | Snow |
|---|---|---|---|---|---|---|---|
| 1787606337 | 31.67° C | 82% | 1014.2 hPa | 0 mm | - | 269 W/m² | - |
| 1787606032 | 31.11° C | 81% | 1014.4 hPa | 0 mm | - | 268 W/m² | - |
| 1787605731 | 31.11° C | 81% | 1014.5 hPa | 0 mm | - | 257 W/m² | - |
| 1787605426 | 31.11° C | 80% | 1014.3 hPa | 0 mm | - | 282 W/m² | - |
| 1787605122 | 31.11° C | 79% | 1014.3 hPa | 0 mm | - | 309 W/m² | - |
| 1787604821 | 31.11° C | 80% | 1014.5 hPa | 0 mm | - | 263 W/m² | - |
| 1787604517 | 31.11° C | 79% | 1014.3 hPa | 0 mm | - | 293 W/m² | - |
| 1787604216 | 31.11° C | 81% | 1014.8 hPa | 0 mm | - | 237 W/m² | - |
| 1787603911 | 31.11° C | 78% | 1014.7 hPa | 0 mm | - | 225 W/m² | - |
| 1787603605 | 31.11° C | 79% | 1014.9 hPa | 0 mm | - | 237 W/m² | - |
| 1787603301 | 31.67° C | 78% | 1015.2 hPa | 0 mm | - | 252 W/m² | - |
| 1787602997 | 31.67° C | 78% | 1015.2 hPa | 0 mm | - | 252 W/m² | - |
| 1787602693 | 31.67° C | 77% | 1015.3 hPa | 0 mm | - | 261 W/m² | - |
| 1787602387 | 31.67° C | 76% | 1015.4 hPa | 0 mm | - | 267 W/m² | - |
| 1787602082 | 31.67° C | 76% | 1015.4 hPa | 0 mm | - | 290 W/m² | - |
| 1787601775 | 31.67° C | 76% | 1015.3 hPa | 0 mm | - | 269 W/m² | - |
| 1787601471 | 31.67° C | 76% | 1015.4 hPa | 0 mm | - | 270 W/m² | - |
| 1787601170 | 31.67° C | 75% | 1015.5 hPa | 0 mm | - | 310 W/m² | - |
| 1787600868 | 32.22° C | 75% | 1015.6 hPa | 0 mm | - | 319 W/m² | - |
| 1787600559 | 32.22° C | 75% | 1015.3 hPa | 0 mm | - | 352 W/m² | - |
| 1787600255 | 32.22° C | 73% | 1014.9 hPa | 0 mm | - | 353 W/m² | - |
| 1787599951 | 32.78° C | 72% | 1015 hPa | 0 mm | - | 414 W/m² | - |
| 1787599647 | 32.78° C | 71% | 1015.1 hPa | 0 mm | - | 520 W/m² | - |
| 1787599344 | 33.33° C | 70% | 1015.1 hPa | 0 mm | - | 525 W/m² | - |
| 1787599039 | 32.78° C | 69% | 1014.9 hPa | 0 mm | - | 545 W/m² | - |
* Rain latest hour (hover to see other rain measurements)
** Current wind speed in m/s (hover to see current wind gust speed)